Time;durP1;ratioP1;P1;durP2;ratioP2;P2;SDS_P1;SDS_P2;PMS_P1;PMS_P2;Temp;Humidity;BMP_temperature;BMP_pressure;BME280_temperature;BME280_humidity;BME280_pressure;Samples;Min_cycle;Max_cycle;Signal;HPM_P1;HPM_P2
2022/07/15 00:01:12;;;;;;;4.05;2.90;;;;;;;23.73;39.14;100227.09;5009990;28;20490;-85
2022/07/15 00:03:40;;;;;;;5.32;3.45;;;;;;;23.70;39.42;100224.78;4990244;28;20691;-81
2022/07/15 00:06:06;;;;;;;4.82;3.35;;;;;;;23.64;39.17;100228.38;4998894;28;20428;-82
2022/07/15 00:08:33;;;;;;;5.32;3.45;;;;;;;23.60;38.61;100229.81;4998320;28;20038;-82
2022/07/15 00:11:00;;;;;;;7.72;3.40;;;;;;;23.57;38.49;100232.97;4985825;28;20104;-83
2022/07/15 00:13:27;;;;;;;4.93;3.20;;;;;;;23.52;38.63;100233.59;5007488;28;20152;-81
2022/07/15 00:15:53;;;;;;;4.97;3.20;;;;;;;23.48;38.57;100234.22;4977134;28;20097;-81
2022/07/15 00:18:20;;;;;;;4.93;2.90;;;;;;;23.44;38.52;100231.09;5005628;28;20076;-81
2022/07/15 00:20:47;;;;;;;4.38;3.05;;;;;;;23.42;38.36;100229.66;4995893;28;20464;-78
2022/07/15 00:23:14;;;;;;;4.75;3.20;;;;;;;23.40;38.05;100227.97;4989589;28;20060;-78
2022/07/15 00:25:40;;;;;;;5.30;3.40;;;;;;;23.37;38.31;100227.56;5010081;28;20050;-82
2022/07/15 00:28:07;;;;;;;5.35;3.42;;;;;;;23.34;38.36;100234.25;5002089;28;20042;-81
2022/07/15 00:30:36;;;;;;;3.70;2.83;;;;;;;23.30;38.69;100238.41;5002037;28;20411;-85
2022/07/15 00:33:04;;;;;;;4.50;2.88;;;;;;;23.27;38.16;100240.69;4999784;28;20449;-85
2022/07/15 00:35:32;;;;;;;6.60;3.33;;;;;;;23.25;38.06;100232.78;4985652;28;20080;-84
2022/07/15 00:37:59;;;;;;;4.90;3.20;;;;;;;23.23;38.45;100242.16;4998253;28;20363;-85
2022/07/15 00:40:26;;;;;;;5.80;3.45;;;;;;;23.17;39.06;100235.69;4983760;28;20034;-85
2022/07/15 00:42:54;;;;;;;4.97;3.13;;;;;;;23.10;38.62;100243.84;5009066;28;20445;-84
2022/07/15 00:45:23;;;;;;;5.60;3.33;;;;;;;23.09;38.17;100247.56;4972465;28;20060;-79
2022/07/15 00:47:54;;;;;;;6.07;3.38;;;;;;;23.13;37.81;100242.59;4985742;28;20091;-79
2022/07/15 00:50:24;;;;;;;8.05;3.30;;;;;;;23.14;38.11;100239.66;4979062;28;20053;-78
2022/07/15 00:52:59;;;;;;;7.05;3.40;;;;;;;23.14;38.35;100242.38;5006041;28;20520;-78
2022/07/15 00:55:27;;;;;;;4.82;3.17;;;;;;;23.08;38.15;100243.22;4981405;28;20498;-78
2022/07/15 00:57:57;;;;;;;5.55;3.33;;;;;;;23.04;38.26;100233.81;4977813;28;20054;-78
2022/07/15 01:00:24;;;;;;;6.03;3.50;;;;;;;23.00;38.23;100238.00;4990249;28;20046;-84
2022/07/15 01:02:52;;;;;;;5.05;3.30;;;;;;;22.98;38.47;100234.66;5002855;28;20043;-78
2022/07/15 01:05:20;;;;;;;5.15;3.05;;;;;;;22.99;38.32;100230.06;5006384;28;20072;-78
2022/07/15 01:07:49;;;;;;;6.53;3.45;;;;;;;22.94;38.30;100236.91;4971325;28;20120;-78
2022/07/15 01:10:18;;;;;;;10.63;3.38;;;;;;;22.89;38.40;100228.56;5000434;28;20123;-78
2022/07/15 01:12:49;;;;;;;4.47;3.08;;;;;;;22.86;38.58;100228.97;4993782;28;20046;-79
2022/07/15 01:15:21;;;;;;;8.57;3.47;;;;;;;22.83;38.48;100232.09;4963905;28;20072;-85
2022/07/15 01:17:47;;;;;;;6.53;3.25;;;;;;;22.79;38.72;100236.25;4996786;28;20434;-84
2022/07/15 01:20:16;;;;;;;3.70;3.15;;;;;;;22.76;38.79;100226.66;5001499;28;20046;-80
2022/07/15 01:22:52;;;;;;;4.60;3.50;;;;;;;22.73;38.64;100228.97;4977451;28;20125;-78
2022/07/15 01:25:22;;;;;;;4.57;3.25;;;;;;;22.64;39.01;100236.44;4983127;28;20050;-82
2022/07/15 01:27:49;;;;;;;4.80;3.17;;;;;;;22.58;38.79;100239.97;4993917;28;20045;-82
2022/07/15 01:30:21;;;;;;;4.77;3.07;;;;;;;22.60;38.77;100237.91;4985789;28;20132;-82
2022/07/15 01:32:48;;;;;;;6.20;3.35;;;;;;;22.50;38.70;100237.44;5011966;28;20136;-84
2022/07/15 01:35:15;;;;;;;6.85;3.47;;;;;;;22.43;38.87;100233.88;5004776;28;20513;-82
2022/07/15 01:37:45;;;;;;;4.60;3.38;;;;;;;22.39;38.85;100238.03;5015873;28;20037;-78
2022/07/15 01:40:12;;;;;;;8.07;3.33;;;;;;;22.39;38.70;100236.19;5000201;28;20046;-78
2022/07/15 01:42:41;;;;;;;7.95;2.92;;;;;;;22.36;39.17;100236.56;5005244;28;20045;-80
2022/07/15 01:45:10;;;;;;;6.00;3.13;;;;;;;22.37;38.93;100234.72;4989027;28;20386;-81
2022/07/15 01:47:48;;;;;;;3.38;2.80;;;;;;;22.33;39.56;100229.69;4985044;28;20997;-82
2022/07/15 01:50:34;;;;;;;9.38;3.80;;;;;;;22.30;39.08;100240.09;4939847;28;20100;-82
2022/07/15 01:53:09;;;;;;;5.22;3.30;;;;;;;22.26;39.11;100234.25;4983829;28;20137;-82
2022/07/15 01:55:36;;;;;;;5.22;3.17;;;;;;;22.24;39.33;100233.63;4967693;28;20137;-80
2022/07/15 01:58:04;;;;;;;6.00;3.30;;;;;;;22.18;39.42;100241.66;4976084;28;20401;-85
2022/07/15 02:00:31;;;;;;;6.78;3.78;;;;;;;22.16;39.64;100236.47;4975222;28;20048;-85
2022/07/15 02:02:58;;;;;;;4.18;3.03;;;;;;;22.17;39.59;100242.72;4996520;28;20108;-85
2022/07/15 02:05:25;;;;;;;6.10;3.10;;;;;;;22.16;39.55;100238.31;5010028;28;20056;-78
2022/07/15 02:07:54;;;;;;;5.72;3.47;;;;;;;22.04;39.61;100235.38;4982830;28;20058;-78
2022/07/15 02:10:22;;;;;;;5.35;3.08;;;;;;;21.98;39.75;100233.47;4984744;28;20050;-81
2022/07/15 02:12:51;;;;;;;5.65;3.25;;;;;;;21.95;40.24;100239.28;5000132;28;20442;-78
2022/07/15 02:15:24;;;;;;;6.55;3.15;;;;;;;21.87;40.56;100242.97;4983279;28;20069;-81
2022/07/15 02:17:55;;;;;;;7.07;3.65;;;;;;;21.84;40.23;100240.69;4987435;28;20129;-78
2022/07/15 02:20:27;;;;;;;4.07;3.10;;;;;;;21.83;40.48;100241.69;4968436;28;20042;-78
2022/07/15 02:22:58;;;;;;;4.22;3.17;;;;;;;21.79;40.39;100237.75;4992102;28;20046;-79
2022/07/15 02:25:26;;;;;;;6.65;3.22;;;;;;;21.77;40.38;100235.22;4990461;28;20512;-83
2022/07/15 02:27:57;;;;;;;8.15;3.95;;;;;;;21.70;40.90;100231.63;5001983;28;20077;-78
2022/07/15 02:30:27;;;;;;;4.53;2.97;;;;;;;21.72;40.39;100224.16;4980118;28;20041;-78
2022/07/15 02:32:55;;;;;;;5.82;3.08;;;;;;;21.68;40.45;100233.72;4971454;28;20077;-78
2022/07/15 02:35:24;;;;;;;4.22;3.20;;;;;;;21.71;40.42;100240.59;4980530;28;20038;-80
2022/07/15 02:37:51;;;;;;;8.48;3.47;;;;;;;21.67;40.54;100232.03;4995982;28;20089;-85
2022/07/15 02:40:18;;;;;;;4.28;2.83;;;;;;;21.69;40.44;100232.69;4988302;28;20490;-84
2022/07/15 02:42:50;;;;;;;6.38;3.45;;;;;;;21.66;40.86;100239.31;4988076;28;20046;-80
2022/07/15 02:45:19;;;;;;;6.95;3.25;;;;;;;21.63;40.65;100238.91;4966219;28;20414;-81
2022/07/15 02:47:47;;;;;;;6.38;3.22;;;;;;;21.57;40.87;100245.91;4985366;28;20135;-82
2022/07/15 02:50:19;;;;;;;6.55;3.10;;;;;;;21.56;40.44;100238.00;4988112;28;20119;-81
2022/07/15 02:52:46;;;;;;;5.68;3.40;;;;;;;21.54;40.65;100237.38;5007811;28;20064;-82
2022/07/15 02:55:14;;;;;;;4.82;3.00;;;;;;;21.45;40.89;100234.81;5002776;28;20502;-82
2022/07/15 02:57:41;;;;;;;5.55;3.40;;;;;;;21.39;40.94;100237.47;5003842;28;20132;-78
2022/07/15 03:00:13;;;;;;;4.93;3.42;;;;;;;21.35;41.07;100238.88;4969018;28;22731;-77
2022/07/15 03:02:42;;;;;;;5.57;3.60;;;;;;;21.29;41.04;100237.78;4977203;28;20041;-81
2022/07/15 03:05:11;;;;;;;6.07;3.38;;;;;;;21.29;41.36;100242.34;4964904;28;20146;-81
2022/07/15 03:07:39;;;;;;;6.32;3.20;;;;;;;21.27;41.39;100257.91;4995656;28;20065;-82
2022/07/15 03:10:08;;;;;;;7.55;3.33;;;;;;;21.22;41.50;100253.94;4991787;28;20038;-82
2022/07/15 03:12:35;;;;;;;7.15;3.05;;;;;;;21.21;41.48;100257.66;4971056;28;20457;-82
2022/07/15 03:15:04;;;;;;;7.88;3.40;;;;;;;21.18;41.59;100257.22;5008904;28;20793;-82
2022/07/15 03:17:34;;;;;;;5.78;3.13;;;;;;;21.16;41.38;100262.81;5005882;28;20739;-83
2022/07/15 03:20:01;;;;;;;6.22;3.03;;;;;;;21.13;41.50;100255.09;4969311;28;20092;-80
2022/07/15 03:22:30;;;;;;;10.73;3.45;;;;;;;21.07;41.71;100258.59;4970931;28;20046;-81
2022/07/15 03:24:58;;;;;;;6.68;3.30;;;;;;;21.05;41.78;100257.13;4983389;28;20100;-77
2022/07/15 03:27:24;;;;;;;7.50;3.63;;;;;;;20.95;41.90;100260.97;4996231;28;20049;-79
2022/07/15 03:29:52;;;;;;;6.95;3.83;;;;;;;20.95;41.93;100262.84;4989663;28;20057;-79
2022/07/15 03:32:20;;;;;;;8.00;3.50;;;;;;;20.90;41.99;100254.47;4983580;28;20411;-79
2022/07/15 03:34:48;;;;;;;7.82;3.22;;;;;;;20.85;42.18;100260.44;4982408;28;20039;-79
2022/07/15 03:37:18;;;;;;;5.03;3.30;;;;;;;20.79;42.28;100259.34;5014316;28;20509;-77
2022/07/15 03:39:47;;;;;;;5.97;3.28;;;;;;;20.74;42.28;100259.09;4977689;28;20129;-79
2022/07/15 03:42:15;;;;;;;8.45;3.63;;;;;;;20.71;42.42;100270.28;4984377;28;20054;-80
2022/07/15 03:44:43;;;;;;;7.00;3.53;;;;;;;20.71;42.45;100269.41;4985949;28;20515;-80
2022/07/15 03:47:10;;;;;;;8.63;3.35;;;;;;;20.72;42.73;100266.53;4983865;28;20493;-76
2022/07/15 03:49:37;;;;;;;4.03;3.38;;;;;;;20.70;42.75;100271.28;5002721;28;20096;-79
2022/07/15 03:52:04;;;;;;;7.15;3.30;;;;;;;20.63;42.79;100283.03;4990138;28;20100;-81
2022/07/15 03:54:34;;;;;;;4.93;2.90;;;;;;;20.59;42.64;100274.50;4957549;28;20509;-81
2022/07/15 03:57:02;;;;;;;6.78;3.80;;;;;;;20.62;42.81;100278.69;5003689;28;20494;-80
2022/07/15 03:59:29;;;;;;;3.55;3.25;;;;;;;20.54;42.94;100277.75;5010244;28;20050;-80
2022/07/15 04:01:55;;;;;;;6.30;3.17;;;;;;;20.73;43.15;100275.47;4996916;28;20128;-79
2022/07/15 04:04:22;;;;;;;6.88;3.72;;;;;;;21.00;43.21;100271.19;5015996;28;20050;-79
2022/07/15 04:06:50;;;;;;;6.65;3.95;;;;;;;21.27;42.59;100276.81;5007379;28;20703;-81
2022/07/15 04:09:17;;;;;;;7.00;3.47;;;;;;;21.38;41.95;100282.56;4986655;28;20446;-79
2022/07/15 04:11:44;;;;;;;7.95;3.70;;;;;;;21.43;41.58;100290.91;4988280;28;20515;-81
2022/07/15 04:14:12;;;;;;;5.03;3.58;;;;;;;21.43;41.76;100280.13;5002478;28;20870;-80
2022/07/15 04:16:41;;;;;;;5.45;3.50;;;;;;;21.31;41.67;100283.50;4976223;28;20160;-79
2022/07/15 04:19:32;;;;;;;6.30;3.60;;;;;;;21.33;41.85;100289.56;4939364;28;20065;-79
2022/07/15 04:22:01;;;;;;;4.55;3.42;;;;;;;21.45;41.55;100283.47;4970984;28;20061;-79
2022/07/15 04:24:32;;;;;;;8.63;3.60;;;;;;;21.63;41.39;100284.84;4995642;28;20125;-80
2022/07/15 04:26:59;;;;;;;6.97;3.55;;;;;;;21.78;41.25;100288.28;4987883;28;20061;-81
2022/07/15 04:29:26;;;;;;;8.63;4.05;;;;;;;21.81;41.10;100289.75;4990505;28;20046;-81
2022/07/15 04:31:53;;;;;;;4.85;3.40;;;;;;;21.78;40.44;100288.28;4994139;28;20037;-81
2022/07/15 04:34:27;;;;;;;8.75;3.53;;;;;;;21.77;40.43;100286.59;4994208;28;20385;-81
2022/07/15 04:36:53;;;;;;;9.23;4.07;;;;;;;21.76;40.47;100284.94;4991602;28;20057;-81
2022/07/15 04:39:21;;;;;;;4.45;3.88;;;;;;;21.74;40.58;100286.97;4984569;28;20060;-79
2022/07/15 04:41:50;;;;;;;5.60;4.25;;;;;;;21.81;40.34;100279.75;5006929;28;20049;-79
2022/07/15 04:44:17;;;;;;;4.65;3.70;;;;;;;21.87;40.48;100286.22;5008848;28;20125;-81
2022/07/15 04:46:44;;;;;;;4.55;3.13;;;;;;;21.88;40.50;100286.06;5012519;28;20540;-77
2022/07/15 04:52:09;;;;;;;8.23;4.22;;;;;;;21.82;40.49;100288.69;4969934;28;20041;-79
2022/07/15 04:54:41;;;;;;;7.50;4.22;;;;;;;21.82;40.51;100286.00;4987443;28;20453;-81
2022/07/15 04:57:08;;;;;;;8.38;3.53;;;;;;;21.79;40.48;100284.53;4984584;28;20129;-81
2022/07/15 04:59:35;;;;;;;5.63;3.88;;;;;;;21.71;40.56;100287.38;4980681;28;20060;-81
2022/07/15 05:02:06;;;;;;;5.85;3.45;;;;;;;21.57;40.77;100285.59;4960379;28;20566;-77
2022/07/15 05:04:39;;;;;;;7.75;4.00;;;;;;;21.51;40.81;100289.94;5001203;28;20045;-77
2022/07/15 05:07:08;;;;;;;7.28;4.20;;;;;;;21.46;41.37;100289.69;4991537;28;20045;-79
2022/07/15 05:09:36;;;;;;;5.75;3.83;;;;;;;21.42;41.16;100288.41;4979320;28;20197;-79
2022/07/15 05:12:05;;;;;;;7.75;3.78;;;;;;;21.38;41.05;100289.81;4990627;28;20510;-79
2022/07/15 05:14:40;;;;;;;9.27;4.35;;;;;;;21.34;41.50;100288.50;4970575;28;20049;-76
2022/07/15 05:17:08;;;;;;;7.60;3.72;;;;;;;21.38;41.41;100289.81;4990406;28;20486;-79
2022/07/15 05:19:35;;;;;;;4.47;3.65;;;;;;;21.43;41.46;100296.31;5005085;28;20050;-79
2022/07/15 05:22:03;;;;;;;6.35;3.83;;;;;;;21.40;41.40;100299.41;4996791;28;20074;-79
2022/07/15 05:24:31;;;;;;;7.50;4.57;;;;;;;21.45;41.48;100301.53;4996265;28;20045;-79
2022/07/15 05:27:02;;;;;;;6.50;3.90;;;;;;;21.44;41.58;100294.44;4986207;28;20053;-79
2022/07/15 05:29:31;;;;;;;7.68;4.30;;;;;;;21.48;41.69;100297.63;4989105;28;20052;-79
2022/07/15 05:31:58;;;;;;;5.13;3.78;;;;;;;21.51;41.35;100299.91;4991165;28;20045;-76
2022/07/15 05:34:26;;;;;;;7.82;4.13;;;;;;;21.51;41.46;100302.63;4997320;28;20413;-78
2022/07/15 05:36:53;;;;;;;7.63;3.78;;;;;;;21.55;41.40;100299.34;4983528;28;20515;-79
2022/07/15 05:39:22;;;;;;;8.13;3.95;;;;;;;21.54;41.26;100305.75;4994748;28;20042;-79
2022/07/15 05:41:52;;;;;;;6.90;3.55;;;;;;;21.59;41.55;100300.59;5018406;28;20057;-79
2022/07/15 05:44:19;;;;;;;6.80;3.90;;;;;;;21.62;41.42;100296.66;5006287;28;20056;-79
2022/07/15 05:46:50;;;;;;;8.68;3.90;;;;;;;21.60;41.54;100302.28;4989137;28;20367;-79
2022/07/15 05:49:17;;;;;;;6.57;4.10;;;;;;;21.60;41.78;100307.69;5010175;28;20691;-79
2022/07/15 05:51:44;;;;;;;7.43;4.10;;;;;;;21.62;41.74;100310.19;4989213;28;20124;-79
2022/07/15 05:54:14;;;;;;;5.40;3.22;;;;;;;21.59;41.62;100313.28;4994463;28;20039;-79
2022/07/15 05:56:42;;;;;;;10.40;3.80;;;;;;;21.63;41.59;100315.41;4955322;28;20052;-81
2022/07/15 05:59:15;;;;;;;9.73;3.35;;;;;;;21.64;41.38;100319.75;5008637;28;20042;-80
2022/07/15 06:01:42;;;;;;;6.63;3.60;;;;;;;21.68;41.72;100315.66;5007218;28;20056;-81
2022/07/15 06:04:09;;;;;;;9.85;4.03;;;;;;;21.65;41.77;100321.44;4988550;28;20465;-81
2022/07/15 06:06:35;;;;;;;8.15;3.70;;;;;;;21.63;41.73;100314.56;4997970;28;20117;-77
2022/07/15 06:09:02;;;;;;;8.95;3.55;;;;;;;21.67;41.24;100321.22;5011393;28;20064;-77
2022/07/15 06:11:29;;;;;;;10.57;3.80;;;;;;;21.79;41.81;100321.53;4996104;28;20056;-79
2022/07/15 06:14:48;;;;;;;12.73;3.72;;;;;;;21.89;41.59;100333.66;4975173;28;20108;-79
2022/07/15 06:17:18;;;;;;;10.65;3.72;;;;;;;21.83;41.49;100331.78;4941817;28;20077;-79
2022/07/15 06:19:45;;;;;;;11.52;4.03;;;;;;;21.86;41.07;100335.94;4994120;28;20073;-79
2022/07/15 06:22:12;;;;;;;8.43;3.92;;;;;;;21.96;41.50;100335.59;4995438;28;20058;-80
2022/07/15 06:24:39;;;;;;;8.38;4.22;;;;;;;21.98;41.23;100336.22;4987279;28;20045;-81
2022/07/15 06:27:06;;;;;;;7.25;3.70;;;;;;;22.01;41.27;100330.44;5004958;28;20494;-79
2022/07/15 06:29:32;;;;;;;7.25;3.90;;;;;;;21.98;41.14;100333.50;5014955;28;20362;-79
2022/07/15 06:31:59;;;;;;;6.60;3.63;;;;;;;22.08;41.42;100328.59;5010298;28;20046;-79
2022/07/15 06:34:26;;;;;;;9.00;3.58;;;;;;;22.18;41.20;100322.81;4970911;28;20037;-81
2022/07/15 06:36:53;;;;;;;10.25;3.78;;;;;;;22.29;41.25;100322.31;5019680;28;20046;-77
2022/07/15 06:44:07;;;;;;;6.72;2.58;;;;;;;22.40;39.78;100323.59;4988748;28;20033;-77
2022/07/15 06:46:40;;;;;;;7.32;3.05;;;;;;;22.42;40.24;100326.94;4969549;28;20401;-77
2022/07/15 06:49:06;;;;;;;7.00;2.83;;;;;;;22.44;40.26;100320.28;5002427;28;21374;-77
2022/07/15 06:51:33;;;;;;;7.80;3.00;;;;;;;22.41;39.87;100326.09;4985978;28;20061;-78
2022/07/15 06:54:01;;;;;;;8.40;2.90;;;;;;;22.36;39.82;100325.84;5002286;28;20120;-77
2022/07/15 06:56:31;;;;;;;7.45;2.80;;;;;;;22.44;39.74;100332.97;4984887;28;20118;-81
2022/07/15 06:58:59;;;;;;;8.35;3.15;;;;;;;22.47;39.46;100327.16;4983377;28;20050;-81
2022/07/15 07:01:25;;;;;;;5.43;2.55;;;;;;;22.47;39.36;100327.16;4993120;28;20053;-79
2022/07/15 07:03:53;;;;;;;5.38;2.30;;;;;;;22.52;39.20;100319.28;5011761;28;20045;-77
2022/07/15 07:06:26;;;;;;;7.47;3.22;;;;;;;22.56;38.63;100312.41;4979154;28;20058;-81
2022/07/15 07:08:54;;;;;;;7.97;2.35;;;;;;;22.56;39.49;100323.25;4997613;28;20046;-81
2022/07/15 07:11:21;;;;;;;4.65;2.28;;;;;;;22.66;38.77;100322.88;4988265;28;20054;-81
2022/07/15 07:13:48;;;;;;;5.68;2.35;;;;;;;22.79;38.39;100317.47;5002737;28;20042;-79
2022/07/15 07:16:16;;;;;;;4.47;2.50;;;;;;;22.82;38.50;100321.66;5012823;28;20405;-81
2022/07/15 07:18:45;;;;;;;4.05;2.17;;;;;;;22.84;38.29;100328.53;4994267;28;20049;-81
2022/07/15 07:21:13;;;;;;;5.93;2.00;;;;;;;22.89;38.25;100317.09;5013152;28;20045;-81
2022/07/15 07:23:40;;;;;;;7.18;2.83;;;;;;;22.94;38.27;100323.56;5013185;28;20050;-81
2022/07/15 07:26:10;;;;;;;5.38;2.53;;;;;;;22.98;37.92;100324.03;5005825;28;20478;-79
2022/07/15 07:28:40;;;;;;;4.07;2.15;;;;;;;23.00;38.24;100327.38;5008566;28;20046;-79
2022/07/15 07:31:08;;;;;;;3.10;2.00;;;;;;;23.01;38.27;100326.31;5010239;28;20045;-79
2022/07/15 07:38:07;;;;;;;5.53;1.52;;;;;;;23.09;36.90;100309.88;4994784;28;20029;-79
2022/07/15 07:40:33;;;;;;;4.60;2.13;;;;;;;23.20;36.78;100308.44;5018155;28;20037;-79
2022/07/15 07:43:00;;;;;;;6.82;1.60;;;;;;;23.23;36.81;100305.31;5006123;28;20049;-79
2022/07/15 07:45:32;;;;;;;7.07;2.10;;;;;;;23.33;36.79;100294.91;4995002;28;20041;-79
2022/07/15 07:47:58;;;;;;;3.92;1.83;;;;;;;23.30;37.32;100294.47;4990386;28;20052;-79
2022/07/15 07:50:27;;;;;;;5.90;2.00;;;;;;;23.33;36.94;100291.34;5008054;28;20046;-79
2022/07/15 07:58:02;;;;;;;3.95;2.00;;;;;;;23.55;36.57;100292.78;5006825;28;20056;-79
2022/07/15 08:00:56;;;;;;;5.28;1.70;;;;;;;23.54;36.71;100293.84;4962230;28;20076;-78
2022/07/15 08:03:24;;;;;;;5.53;1.95;;;;;;;23.60;36.77;100295.72;4952656;28;20482;-83
2022/07/15 08:06:18;;;;;;;4.40;2.10;;;;;;;23.66;36.17;100288.63;4988607;28;20041;-82
2022/07/15 08:08:45;;;;;;;5.22;2.15;;;;;;;23.72;36.71;100282.41;4968830;28;20129;-81
2022/07/15 08:11:12;;;;;;;3.92;2.00;;;;;;;23.79;36.13;100285.94;4997151;28;20103;-82
2022/07/15 08:13:39;;;;;;;3.92;2.08;;;;;;;23.74;36.10;100284.91;4999594;28;20448;-82
2022/07/15 08:16:06;;;;;;;6.82;2.20;;;;;;;23.71;35.53;100287.97;5002174;28;20122;-80
2022/07/15 08:18:35;;;;;;;8.57;2.15;;;;;;;23.68;35.78;100288.41;4979956;28;20521;-82
2022/07/15 08:21:03;;;;;;;4.97;2.20;;;;;;;23.69;36.01;100281.97;4997366;28;20129;-87
2022/07/15 08:23:32;;;;;;;6.63;2.28;;;;;;;23.61;35.47;100294.69;4986207;28;20041;-84
2022/07/15 08:25:59;;;;;;;3.50;2.05;;;;;;;23.65;35.81;100286.13;4999294;28;20117;-84
2022/07/15 08:28:26;;;;;;;4.57;2.22;;;;;;;23.73;35.81;100283.22;5007285;28;20053;-79
2022/07/15 08:31:12;;;;;;;5.22;1.88;;;;;;;23.79;34.82;100285.94;4979581;28;20096;-79
2022/07/15 08:33:40;;;;;;;9.77;2.03;;;;;;;23.76;35.38;100290.94;5007380;28;20526;-79
2022/07/15 08:36:08;;;;;;;4.97;2.33;;;;;;;23.82;35.47;100299.06;5009108;28;20044;-79
2022/07/15 08:38:35;;;;;;;3.38;2.00;;;;;;;23.90;35.70;100297.19;4985767;28;20053;-79
2022/07/15 08:41:02;;;;;;;2.63;2.10;;;;;;;23.97;35.55;100293.41;4993354;28;20398;-79
2022/07/15 08:43:29;;;;;;;5.07;2.03;;;;;;;23.91;34.89;100293.41;4980338;28;20133;-82
2022/07/15 08:45:58;;;;;;;5.18;2.22;;;;;;;23.72;35.13;100295.09;5013822;28;20049;-82
2022/07/15 08:48:34;;;;;;;5.50;1.92;;;;;;;23.69;35.27;100296.34;4953491;28;20115;-79
2022/07/15 08:51:03;;;;;;;5.10;2.00;;;;;;;23.70;35.25;100295.28;4986531;28;20045;-84
2022/07/15 08:53:30;;;;;;;5.22;1.95;;;;;;;23.71;35.18;100299.69;4963637;28;20076;-82
2022/07/15 08:55:58;;;;;;;4.97;2.28;;;;;;;23.73;34.92;100283.22;5003660;28;20068;-84
2022/07/15 08:58:27;;;;;;;5.38;2.25;;;;;;;23.87;35.46;100287.59;4986258;28;20065;-84
2022/07/15 09:01:14;;;;;;;3.63;2.33;;;;;;;23.90;35.05;100291.75;4954254;28;20057;-79
2022/07/15 09:03:41;;;;;;;5.70;2.10;;;;;;;23.91;34.69;100301.53;5004105;28;20140;-79
2022/07/15 09:06:08;;;;;;;8.52;7.03;;;;;;;24.04;36.04;100298.78;4972537;28;20053;-83
2022/07/15 09:08:35;;;;;;;4.60;2.38;;;;;;;23.94;34.48;100299.25;5009661;28;20095;-83
2022/07/15 09:11:02;;;;;;;4.57;2.50;;;;;;;23.90;34.36;100294.47;5002093;28;20065;-81
2022/07/15 09:13:35;;;;;;;3.30;2.03;;;;;;;23.81;34.18;100300.13;4981222;28;20390;-80
2022/07/15 09:16:04;;;;;;;6.68;2.40;;;;;;;23.82;34.30;100293.66;4991006;28;20068;-78
2022/07/15 09:18:35;;;;;;;7.55;2.58;;;;;;;23.79;34.03;100291.34;5010019;28;20044;-87
2022/07/15 09:21:03;;;;;;;9.48;2.90;;;;;;;23.80;34.71;100292.19;5005467;28;20049;-81
2022/07/15 09:23:30;;;;;;;8.52;3.50;;;;;;;23.79;34.36;100295.97;4989951;28;20053;-83
2022/07/15 09:26:29;;;;;;;6.85;2.67;;;;;;;23.78;33.74;100283.44;4997207;28;20104;-78
2022/07/15 09:28:57;;;;;;;3.45;2.17;;;;;;;23.79;35.04;100291.34;4983256;28;20502;-79
2022/07/15 09:34:22;;;;;;;4.57;2.22;;;;;;;23.91;34.51;100291.53;5001153;28;20088;-78
2022/07/15 09:36:52;;;;;;;3.90;2.40;;;;;;;23.89;34.70;100293.63;4979448;28;20107;-80
2022/07/15 09:39:21;;;;;;;6.88;2.55;;;;;;;23.78;34.52;100294.28;4992831;28;20038;-82
2022/07/15 09:41:49;;;;;;;5.10;2.40;;;;;;;23.72;34.88;100295.97;4978445;28;20048;-79
2022/07/15 09:44:21;;;;;;;7.85;3.42;;;;;;;23.74;34.53;100296.59;5008386;28;22465;-79
2022/07/15 09:46:49;;;;;;;5.47;2.35;;;;;;;23.80;34.37;100287.59;5011809;28;20046;-76
2022/07/15 09:49:38;;;;;;;5.22;2.30;;;;;;;23.89;34.19;100287.34;5007935;28;20665;-76
2022/07/15 09:52:10;;;;;;;4.53;2.90;;;;;;;23.89;34.70;100284.66;4977159;28;20136;-85
2022/07/15 09:54:38;;;;;;;12.30;2.63;;;;;;;23.88;34.34;100285.72;4962550;28;20061;-87
2022/07/15 09:57:11;;;;;;;4.55;2.40;;;;;;;23.89;34.19;100284.66;4978223;28;20050;-85
2022/07/15 09:59:38;;;;;;;4.30;2.90;;;;;;;23.86;34.08;100293.22;4942930;28;20061;-85
2022/07/15 10:02:08;;;;;;;19.65;5.20;;;;;;;23.87;35.26;100289.47;4997231;28;20041;-87
2022/07/15 10:09:14;;;;;;;6.32;2.65;;;;;;;23.90;34.56;100291.75;4997263;28;20037;-82
2022/07/15 10:11:45;;;;;;;14.60;3.30;;;;;;;23.94;35.53;100295.69;5010652;28;20064;-87
2022/07/15 10:14:29;;;;;;;8.40;2.73;;;;;;;24.08;34.33;100291.09;4993749;28;20057;-83
2022/07/15 10:16:59;;;;;;;13.93;3.97;;;;;;;24.24;36.01;100279.75;5004228;28;20046;-81
2022/07/15 10:19:44;;;;;;;7.72;3.47;;;;;;;24.40;34.25;100262.13;4997900;28;20053;-83
2022/07/15 10:26:22;;;;;;;6.63;2.80;;;;;;;24.49;34.20;100271.75;4939032;28;20052;-83
2022/07/15 10:29:02;;;;;;;2.75;2.42;;;;;;;24.62;34.02;100273.56;4935600;28;20046;-81
2022/07/15 10:31:31;;;;;;;6.03;2.63;;;;;;;24.51;33.16;100283.22;5000052;28;20044;-81
2022/07/15 10:34:03;;;;;;;5.43;2.53;;;;;;;24.50;33.01;100284.28;5032404;28;20054;-82
2022/07/15 10:36:52;;;;;;;4.95;2.63;;;;;;;24.36;32.55;100280.75;5022256;28;20041;-81
2022/07/15 10:39:21;;;;;;;4.82;2.50;;;;;;;24.33;33.54;100278.47;4951599;28;20568;-84
2022/07/15 10:42:00;;;;;;;10.27;3.33;;;;;;;24.31;33.09;100266.16;4999557;28;20027;-84
2022/07/15 10:44:32;;;;;;;6.28;2.85;;;;;;;24.31;34.13;100268.88;4974346;28;20632;-85
2022/07/15 10:47:14;;;;;;;5.05;2.70;;;;;;;24.44;32.90;100256.06;4978216;28;20045;-83
2022/07/15 10:49:43;;;;;;;8.70;3.15;;;;;;;24.60;33.50;100253.94;5008478;28;20045;-84
2022/07/15 10:52:21;;;;;;;7.13;2.80;;;;;;;24.69;33.79;100249.91;5011199;28;20037;-85
2022/07/15 10:54:49;;;;;;;5.25;3.33;;;;;;;24.75;33.50;100256.34;4986516;28;20428;-85
2022/07/15 10:57:19;;;;;;;8.15;2.90;;;;;;;24.74;33.05;100251.97;5004360;28;20468;-86
2022/07/15 10:59:49;;;;;;;6.38;2.72;;;;;;;24.60;33.19;100252.06;4994478;28;20763;-87
2022/07/15 11:02:18;;;;;;;6.68;2.92;;;;;;;24.58;33.54;100254.16;4988640;28;20065;-86
2022/07/15 11:04:45;;;;;;;5.38;2.70;;;;;;;24.55;33.51;100248.31;5013359;28;20042;-86
2022/07/15 11:07:18;;;;;;;18.08;3.60;;;;;;;24.58;33.34;100248.72;4984084;28;20048;-83
2022/07/15 11:10:03;;;;;;;6.70;2.88;;;;;;;24.43;33.17;100246.28;5011005;28;20053;-81
2022/07/15 11:12:30;;;;;;;5.75;2.63;;;;;;;24.32;33.71;100237.97;5010359;28;20041;-82
2022/07/15 11:15:04;;;;;;;13.15;3.35;;;;;;;24.25;33.57;100236.13;4994331;28;20053;-86
2022/07/15 11:17:33;;;;;;;4.53;2.60;;;;;;;24.30;33.38;100232.78;4998508;28;20046;-85
2022/07/15 11:20:10;;;;;;;5.97;2.70;;;;;;;24.30;33.30;100232.78;5006733;28;20409;-85
2022/07/15 11:22:43;;;;;;;3.63;2.50;;;;;;;24.36;33.85;100217.50;4965589;28;20620;-85
2022/07/15 11:25:21;;;;;;;7.63;3.03;;;;;;;24.53;34.31;100218.69;4989373;28;20155;-84
2022/07/15 11:28:13;;;;;;;10.35;3.80;;;;;;;24.68;34.37;100207.53;4993243;28;20041;-85
2022/07/15 11:30:42;;;;;;;6.53;3.30;;;;;;;24.74;33.82;100206.63;4963855;28;20055;-82
2022/07/15 11:33:16;;;;;;;3.55;2.90;;;;;;;24.83;32.90;100216.19;4996664;28;20042;-83
2022/07/15 11:35:50;;;;;;;8.73;3.00;;;;;;;24.85;32.72;100219.50;5016922;28;20400;-85
2022/07/15 11:38:20;;;;;;;4.93;2.80;;;;;;;24.78;32.56;100220.59;4959603;28;20054;-84
2022/07/15 11:46:25;;;;;;;5.40;2.72;;;;;;;24.44;32.82;100220.78;4974011;28;20045;-86
2022/07/15 11:48:52;;;;;;;6.18;2.72;;;;;;;24.39;33.34;100219.78;4987582;28;20065;-86
2022/07/15 11:51:30;;;;;;;4.65;2.97;;;;;;;24.49;33.26;100220.16;4987287;28;20048;-87
2022/07/15 11:53:59;;;;;;;3.35;2.70;;;;;;;24.56;33.45;100217.41;4988247;28;21375;-87
2022/07/15 11:56:26;;;;;;;3.92;2.70;;;;;;;24.61;33.05;100212.16;4994152;28;20100;-85
2022/07/15 11:58:55;;;;;;;6.78;2.90;;;;;;;24.68;32.85;100223.81;5002380;28;20144;-87
2022/07/15 12:01:28;;;;;;;7.40;3.08;;;;;;;24.70;32.12;100210.84;4982499;28;20076;-86
2022/07/15 12:03:58;;;;;;;4.28;2.83;;;;;;;24.71;32.44;100211.69;5008732;28;20081;-85
2022/07/15 12:06:30;;;;;;;3.75;2.50;;;;;;;24.64;32.44;100201.69;5001100;28;20038;-84
2022/07/15 12:09:02;;;;;;;;;;;;;;;24.67;32.62;100209.38;5001318;28;20494;-81
2022/07/15 12:11:32;;;;;;;7.47;2.90;;;;;;;24.71;32.87;100217.13;5015510;28;19922;-82